Time;durP1;ratioP1;P1;durP2;ratioP2;P2;SDS_P1;SDS_P2;PMS_P1;PMS_P2;Temp;Humidity;BMP_temperature;BMP_pressure;BME280_temperature;BME280_humidity;BME280_pressure;Samples;Min_cycle;Max_cycle;Signal;HPM_P1;HPM_P2
2022/04/25 00:00:03;;;;;;;16.27;14.67;;;13.00;99.90;;;;;;5092327;28;20200;-56
2022/04/25 00:02:30;;;;;;;16.10;14.50;;;13.10;99.90;;;;;;5092108;28;20235;-56
2022/04/25 00:04:56;;;;;;;16.20;14.60;;;13.00;99.90;;;;;;5092200;28;20298;-56
2022/04/25 00:07:23;;;;;;;15.20;13.60;;;13.00;99.90;;;;;;5091811;28;20220;-56
2022/04/25 00:09:50;;;;;;;16.13;14.53;;;13.00;99.90;;;;;;5091934;28;20675;-57
2022/04/25 00:12:18;;;;;;;16.30;14.67;;;13.00;99.90;;;;;;5091841;28;20595;-56
2022/04/25 00:14:45;;;;;;;15.77;14.13;;;13.00;99.90;;;;;;5092227;28;20204;-56
2022/04/25 00:17:12;;;;;;;15.97;14.33;;;13.00;99.90;;;;;;5091759;28;20208;-55
2022/04/25 00:19:38;;;;;;;15.97;14.30;;;12.90;99.90;;;;;;5091543;28;20668;-56
2022/04/25 00:22:05;;;;;;;16.87;15.17;;;13.00;99.90;;;;;;5091919;28;20228;-56
2022/04/25 00:24:32;;;;;;;15.90;14.30;;;12.90;99.90;;;;;;5091899;28;20265;-56
2022/04/25 00:26:59;;;;;;;18.77;14.63;;;13.00;99.90;;;;;;5092056;28;20258;-56
2022/04/25 00:29:27;;;;;;;16.23;14.53;;;13.00;99.90;;;;;;5091701;28;20249;-57
2022/04/25 00:31:53;;;;;;;16.80;14.87;;;13.10;99.90;;;;;;5092179;28;20305;-57
2022/04/25 00:34:20;;;;;;;17.57;15.67;;;13.10;99.90;;;;;;5091893;28;20587;-57
2022/04/25 00:36:47;;;;;;;16.67;14.97;;;13.20;99.90;;;;;;5091763;28;20208;-56
2022/04/25 00:39:13;;;;;;;17.10;15.40;;;13.20;99.90;;;;;;5091713;28;20208;-56
2022/04/25 00:41:40;;;;;;;18.00;16.13;;;13.20;99.90;;;;;;5091961;28;20204;-56
2022/04/25 00:44:07;;;;;;;17.93;16.13;;;13.20;99.90;;;;;;5091893;28;20208;-56
2022/04/25 00:46:36;;;;;;;17.40;15.67;;;13.10;99.90;;;;;;5091754;28;20253;-56
2022/04/25 00:49:04;;;;;;;18.10;16.20;;;13.10;99.90;;;;;;5091386;28;20318;-56
2022/04/25 00:51:30;;;;;;;18.90;17.00;;;13.00;99.90;;;;;;5091570;28;20228;-56
2022/04/25 00:53:57;;;;;;;18.33;16.53;;;12.90;99.90;;;;;;5091346;28;20296;-56
2022/04/25 00:56:25;;;;;;;18.47;16.67;;;12.90;99.90;;;;;;5091717;28;20254;-56
2022/04/25 00:58:52;;;;;;;17.87;16.13;;;13.00;99.90;;;;;;5091507;28;20291;-56
2022/04/25 01:01:19;;;;;;;19.27;17.37;;;13.00;99.90;;;;;;5091683;28;20208;-55
2022/04/25 01:03:49;;;;;;;18.87;16.97;;;13.00;99.90;;;;;;5091444;28;20227;-56
2022/04/25 01:06:16;;;;;;;19.00;17.20;;;13.00;99.90;;;;;;5091479;28;20307;-56
2022/04/25 01:08:43;;;;;;;19.37;17.37;;;13.00;99.90;;;;;;5091341;28;20228;-57
2022/04/25 01:11:11;;;;;;;19.97;17.97;;;13.00;99.90;;;;;;5091643;28;20200;-56
2022/04/25 01:13:38;;;;;;;18.73;16.93;;;13.00;99.90;;;;;;5091471;28;20259;-57
2022/04/25 01:16:05;;;;;;;17.90;15.93;;;13.00;99.90;;;;;;5091445;28;20249;-56
2022/04/25 01:18:32;;;;;;;19.80;17.40;;;13.10;99.90;;;;;;5091022;28;20254;-56
2022/04/25 01:21:00;;;;;;;19.73;17.80;;;13.00;99.90;;;;;;5091752;28;20262;-56
2022/04/25 01:28:59;;;;;;;19.93;17.70;;;13.00;99.90;;;;;;5091131;28;20227;-57
2022/04/25 01:31:25;;;;;;;19.80;17.80;;;13.00;99.90;;;;;;5094466;28;20299;-56
2022/04/25 01:33:53;;;;;;;20.13;17.70;;;12.90;99.90;;;;;;5094954;28;20227;-56
2022/04/25 01:36:23;;;;;;;19.13;17.30;;;12.90;99.90;;;;;;5095001;28;20465;-56
2022/04/25 01:38:52;;;;;;;20.70;18.57;;;12.80;99.90;;;;;;5094753;28;20208;-55
2022/04/25 01:41:19;;;;;;;18.93;17.10;;;12.80;99.90;;;;;;5094749;28;20204;-56
2022/04/25 01:43:45;;;;;;;19.90;17.90;;;12.80;99.90;;;;;;5094691;28;20224;-56
2022/04/25 01:46:12;;;;;;;19.30;17.40;;;12.80;99.90;;;;;;5094893;28;20223;-55
2022/04/25 01:48:39;;;;;;;20.10;18.13;;;12.70;99.90;;;;;;5094208;28;20578;-56
2022/04/25 01:51:05;;;;;;;19.83;17.83;;;12.80;99.90;;;;;;5094717;28;20205;-56
2022/04/25 01:53:32;;;;;;;20.27;18.37;;;12.70;99.90;;;;;;5094916;28;20247;-55
2022/04/25 01:56:00;;;;;;;20.57;18.47;;;12.70;99.90;;;;;;5094477;28;20207;-55
2022/04/25 01:58:27;;;;;;;21.47;19.17;;;12.80;99.90;;;;;;5094256;28;20573;-56
2022/04/25 02:00:53;;;;;;;22.67;19.70;;;12.80;99.90;;;;;;5094395;28;20666;-56
2022/04/25 02:03:20;;;;;;;20.23;18.23;;;12.90;99.90;;;;;;5094402;28;20228;-55
2022/04/25 02:05:47;;;;;;;20.93;18.93;;;12.80;99.90;;;;;;5095541;28;20208;-55
2022/04/25 02:08:14;;;;;;;21.77;19.60;;;12.80;99.90;;;;;;5094126;28;20228;-55
2022/04/25 02:10:40;;;;;;;22.13;19.80;;;12.80;99.90;;;;;;5094277;28;20660;-55
2022/04/25 02:13:08;;;;;;;22.00;19.70;;;12.80;99.90;;;;;;5094162;28;20723;-55
2022/04/25 02:15:35;;;;;;;21.67;19.57;;;12.80;99.90;;;;;;5094152;28;20668;-55
2022/04/25 02:18:02;;;;;;;21.77;19.50;;;12.70;99.90;;;;;;5093969;28;20295;-55
2022/04/25 02:20:28;;;;;;;21.77;19.60;;;12.60;99.90;;;;;;5094144;28;20253;-55
2022/04/25 02:22:55;;;;;;;21.30;19.20;;;12.60;99.90;;;;;;5093919;28;20228;-56
2022/04/25 02:25:22;;;;;;;20.73;18.53;;;12.60;99.90;;;;;;5093927;28;20631;-55
2022/04/25 02:27:48;;;;;;;22.10;19.70;;;12.50;99.90;;;;;;5093780;28;20247;-55
2022/04/25 02:30:16;;;;;;;22.67;20.27;;;12.50;99.90;;;;;;5094059;28;20226;-56
2022/04/25 02:32:43;;;;;;;22.07;19.80;;;12.50;99.90;;;;;;5093768;28;20301;-55
2022/04/25 02:35:10;;;;;;;22.33;20.03;;;12.40;99.90;;;;;;5093743;28;20628;-56
2022/04/25 02:37:36;;;;;;;21.93;19.70;;;12.40;99.90;;;;;;5093351;28;20196;-55
2022/04/25 02:40:03;;;;;;;22.93;20.50;;;12.50;99.90;;;;;;5093604;28;20204;-55
2022/04/25 02:42:30;;;;;;;23.33;21.00;;;12.50;99.90;;;;;;5092596;28;20228;-56
2022/04/25 02:44:57;;;;;;;21.33;19.23;;;12.50;99.90;;;;;;5093589;28;20204;-55
2022/04/25 02:47:25;;;;;;;21.90;19.63;;;12.50;99.90;;;;;;5093483;28;20204;-56
2022/04/25 02:49:52;;;;;;;22.97;20.57;;;12.60;99.90;;;;;;5093206;28;20722;-55
2022/04/25 02:52:18;;;;;;;24.33;21.77;;;12.60;99.90;;;;;;5092996;28;20626;-55
2022/04/25 02:54:45;;;;;;;22.70;20.20;;;12.60;99.90;;;;;;5093350;28;20601;-55
2022/04/25 02:57:12;;;;;;;21.07;19.07;;;12.60;99.90;;;;;;5093470;28;20206;-56
2022/04/25 02:59:38;;;;;;;21.90;19.70;;;12.60;99.90;;;;;;5093247;28;20196;-55
2022/04/25 03:02:05;;;;;;;22.60;20.30;;;12.70;99.90;;;;;;5093356;28;20223;-55
2022/04/25 03:04:34;;;;;;;21.40;19.30;;;12.60;99.90;;;;;;5093349;28;20552;-55
2022/04/25 03:07:01;;;;;;;21.80;19.63;;;12.60;99.90;;;;;;5092981;28;20211;-55
2022/04/25 03:09:28;;;;;;;21.93;19.67;;;12.60;99.90;;;;;;5092951;28;20631;-55
2022/04/25 03:11:54;;;;;;;21.77;19.57;;;12.60;99.90;;;;;;5093102;28;20204;-55
2022/04/25 03:14:22;;;;;;;21.93;19.40;;;12.60;99.90;;;;;;5093026;28;20673;-55
2022/04/25 03:16:49;;;;;;;21.37;19.17;;;12.60;99.90;;;;;;5092831;28;20576;-56
2022/04/25 03:19:17;;;;;;;22.70;20.50;;;12.60;99.90;;;;;;5093202;28;20236;-56
2022/04/25 03:21:45;;;;;;;22.30;20.00;;;12.60;99.90;;;;;;5092865;28;20203;-56
2022/04/25 03:24:11;;;;;;;21.57;19.23;;;12.70;99.90;;;;;;5092961;28;20589;-55
2022/04/25 03:26:39;;;;;;;21.80;19.60;;;12.70;99.90;;;;;;5092845;28;20595;-59
2022/04/25 03:29:06;;;;;;;23.17;20.87;;;12.70;99.90;;;;;;5092578;28;20247;-55
2022/04/25 03:31:33;;;;;;;25.60;22.87;;;12.70;99.90;;;;;;5092658;28;20287;-56
2022/04/25 03:34:00;;;;;;;22.67;20.27;;;12.60;99.90;;;;;;5093153;28;20231;-56
2022/04/25 03:36:26;;;;;;;21.80;19.57;;;12.60;99.90;;;;;;5092855;28;20503;-55
2022/04/25 03:38:54;;;;;;;23.07;20.73;;;12.60;99.90;;;;;;5092569;28;20211;-57
2022/04/25 03:41:21;;;;;;;22.27;19.87;;;12.60;99.90;;;;;;5092777;28;20208;-56
2022/04/25 03:43:48;;;;;;;25.53;22.83;;;12.60;99.90;;;;;;5092483;28;20232;-56
2022/04/25 03:46:14;;;;;;;22.07;19.97;;;12.60;99.90;;;;;;5092498;28;20204;-56
2022/04/25 03:48:41;;;;;;;22.60;20.33;;;12.70;99.90;;;;;;5091940;28;20277;-56
2022/04/25 03:51:09;;;;;;;23.00;20.70;;;12.60;99.90;;;;;;5092547;28;20204;-56
2022/04/25 03:53:38;;;;;;;21.80;19.60;;;12.60;99.90;;;;;;5092014;28;20239;-56
2022/04/25 03:58:50;;;;;;;22.70;20.47;;;12.70;99.90;;;;;;5092312;28;20199;-56
2022/04/25 04:01:17;;;;;;;24.47;21.97;;;12.70;99.90;;;;;;5092604;28;20211;-55
2022/04/25 04:03:45;;;;;;;23.10;20.80;;;12.60;99.90;;;;;;5092372;28;20294;-56
2022/04/25 04:06:12;;;;;;;22.07;19.90;;;12.60;99.90;;;;;;5092370;28;20249;-57
2022/04/25 04:08:39;;;;;;;24.00;21.60;;;12.60;99.90;;;;;;5093110;28;20228;-55
2022/04/25 04:11:07;;;;;;;23.00;20.27;;;12.50;99.90;;;;;;5093165;28;20215;-56
2022/04/25 04:13:34;;;;;;;24.40;21.90;;;12.30;99.90;;;;;;5092242;28;20232;-56
2022/04/25 04:16:01;;;;;;;22.90;20.70;;;12.20;99.90;;;;;;5092053;28;20235;-56
2022/04/25 04:18:28;;;;;;;24.87;22.37;;;12.00;99.90;;;;;;5092004;28;20211;-57
2022/04/25 04:20:55;;;;;;;29.27;26.20;;;11.80;99.90;;;;;;5092052;28;20210;-56
2022/04/25 04:23:22;;;;;;;24.70;22.13;;;11.60;99.90;;;;;;5091879;28;20258;-56
2022/04/25 04:25:49;;;;;;;27.37;23.80;;;11.50;99.90;;;;;;5091601;28;20212;-56
2022/04/25 04:28:17;;;;;;;26.20;23.40;;;11.40;99.90;;;;;;5091386;28;20698;-56
2022/04/25 04:30:46;;;;;;;25.40;22.90;;;11.40;99.90;;;;;;5092038;28;20263;-56
2022/04/25 04:33:13;;;;;;;25.43;22.73;;;11.30;99.90;;;;;;5092065;28;20224;-56
2022/04/25 04:38:24;;;;;;;26.83;23.80;;;11.50;99.90;;;;;;5091723;28;20314;-56
2022/04/25 04:40:50;;;;;;;24.73;22.00;;;11.60;99.90;;;;;;5091705;28;20204;-56
2022/04/25 04:43:18;;;;;;;25.73;23.00;;;11.70;99.90;;;;;;5091921;28;20223;-56
2022/04/25 04:45:45;;;;;;;25.03;22.37;;;11.80;99.90;;;;;;5091941;28;20646;-56
2022/04/25 04:48:12;;;;;;;24.03;21.50;;;11.90;99.90;;;;;;5091566;28;20295;-56
2022/04/25 04:50:39;;;;;;;23.60;21.20;;;12.00;99.90;;;;;;5091789;28;20231;-56
2022/04/25 04:53:05;;;;;;;23.40;21.10;;;12.10;99.90;;;;;;5091555;28;20240;-55
2022/04/25 04:55:33;;;;;;;24.03;21.47;;;12.20;99.90;;;;;;5092011;28;20208;-55
2022/04/25 04:58:00;;;;;;;23.07;20.67;;;12.20;99.90;;;;;;5091306;28;20716;-55
2022/04/25 05:00:29;;;;;;;23.90;21.57;;;12.30;99.90;;;;;;5091564;28;20204;-56
2022/04/25 05:02:56;;;;;;;22.70;20.43;;;12.40;99.90;;;;;;5091535;28;20220;-55
2022/04/25 05:05:23;;;;;;;24.97;22.37;;;12.40;99.90;;;;;;5092989;28;20215;-55
2022/04/25 05:07:50;;;;;;;23.80;21.20;;;12.50;99.90;;;;;;5095181;28;20208;-55
2022/04/25 05:10:16;;;;;;;23.53;21.23;;;12.70;99.90;;;;;;5095301;28;20597;-55
2022/04/25 05:12:49;;;;;;;22.47;20.27;;;12.80;99.90;;;;;;5095352;28;20251;-56
2022/04/25 05:15:16;;;;;;;20.80;18.80;;;13.00;99.90;;;;;;5095365;28;20294;-55
2022/04/25 05:17:48;;;;;;;22.40;20.20;;;13.30;99.90;;;;;;5095105;28;20668;-55
2022/04/25 05:20:15;;;;;;;20.30;18.30;;;13.70;99.90;;;;;;5095300;28;20204;-55
2022/04/25 05:22:44;;;;;;;20.43;18.43;;;14.10;99.90;;;;;;5095087;28;20228;-55
2022/04/25 05:25:11;;;;;;;19.70;17.70;;;14.50;99.90;;;;;;5095173;28;20239;-55
2022/04/25 05:27:39;;;;;;;19.70;17.80;;;14.80;99.90;;;;;;5094955;28;20676;-56
2022/04/25 05:30:07;;;;;;;20.37;18.37;;;15.10;99.90;;;;;;5094482;28;20652;-57
2022/04/25 05:32:48;;;;;;;19.47;17.57;;;15.40;99.90;;;;;;5095373;28;20309;-55
2022/04/25 05:35:16;;;;;;;19.53;17.70;;;15.60;99.90;;;;;;5095201;28;20208;-55
2022/04/25 05:37:43;;;;;;;21.30;19.30;;;15.80;99.90;;;;;;5095105;28;20200;-55
2022/04/25 05:40:11;;;;;;;20.13;18.20;;;15.80;99.90;;;;;;5094690;28;20214;-55
2022/04/25 05:42:40;;;;;;;19.33;17.43;;;15.80;99.90;;;;;;5094612;28;20319;-56
2022/04/25 05:45:08;;;;;;;20.53;18.53;;;15.70;99.90;;;;;;5094627;28;20613;-56
2022/04/25 05:47:34;;;;;;;19.53;17.67;;;15.50;99.90;;;;;;5094961;28;20201;-55
2022/04/25 05:52:48;;;;;;;19.70;17.73;;;15.60;99.90;;;;;;5094678;28;20246;-56
2022/04/25 05:55:15;;;;;;;18.90;17.03;;;16.40;99.90;;;;;;5095042;28;20207;-56
2022/04/25 05:57:42;;;;;;;17.70;15.87;;;17.10;99.90;;;;;;5094433;28;20261;-56
2022/04/25 06:00:10;;;;;;;18.00;16.10;;;17.50;99.90;;;;;;5094282;28;20201;-56
2022/04/25 06:02:38;;;;;;;18.80;16.93;;;17.60;99.90;;;;;;5094338;28;20311;-56
2022/04/25 06:05:07;;;;;;;17.10;15.40;;;17.90;99.90;;;;;;5094480;28;20295;-56
2022/04/25 06:07:34;;;;;;;16.83;14.90;;;18.60;99.90;;;;;;5094289;28;20204;-56
2022/04/25 06:10:01;;;;;;;16.70;15.15;;;19.50;99.90;;;;;;5093940;28;20319;-58
2022/04/25 06:12:29;;;;;;;18.53;16.70;;;19.80;99.90;;;;;;5090122;28;20463;-61
2022/04/25 06:14:56;;;;;;;18.55;16.85;;;19.70;99.90;;;;;;5094331;28;20701;-62
2022/04/25 06:17:22;;;;;;;16.48;14.88;;;19.80;99.90;;;;;;5093756;28;20204;-57
2022/04/25 06:19:49;;;;;;;16.05;14.52;;;20.00;99.90;;;;;;5093734;28;20287;-58
2022/04/25 06:22:18;;;;;;;15.23;13.82;;;20.70;99.90;;;;;;5093294;28;20281;-58
2022/04/25 06:24:45;;;;;;;15.32;13.90;;;21.90;99.90;;;;;;5094042;28;20211;-59
2022/04/25 06:27:11;;;;;;;13.40;12.20;;;23.00;98.60;;;;;;5094552;28;20208;-57
2022/04/25 06:29:39;;;;;;;14.75;13.35;;;23.50;95.00;;;;;;5093239;28;20274;-57
2022/04/25 06:32:07;;;;;;;14.38;13.13;;;23.30;94.70;;;;;;5093832;28;20228;-58
2022/04/25 06:34:34;;;;;;;14.85;13.40;;;22.70;94.50;;;;;;5093249;28;20208;-57
2022/04/25 06:37:00;;;;;;;15.32;13.93;;;22.00;95.10;;;;;;5093797;28;20219;-57
2022/04/25 06:39:29;;;;;;;15.50;14.10;;;21.70;95.70;;;;;;5093074;28;20208;-57
2022/04/25 06:41:56;;;;;;;13.93;12.63;;;21.20;96.10;;;;;;5093399;28;20208;-58
2022/04/25 06:44:23;;;;;;;16.52;14.98;;;20.70;96.50;;;;;;5093568;28;20215;-57
2022/04/25 06:46:49;;;;;;;16.88;15.27;;;20.20;97.30;;;;;;5093277;28;20544;-58
2022/04/25 06:49:23;;;;;;;15.57;14.07;;;19.70;97.90;;;;;;5093218;28;20282;-58
2022/04/25 06:51:50;;;;;;;16.52;14.95;;;19.30;98.20;;;;;;5093398;28;20216;-61
2022/04/25 06:54:18;;;;;;;15.48;13.98;;;18.80;98.80;;;;;;5093239;28;20210;-62
2022/04/25 06:56:46;;;;;;;17.35;15.07;;;18.30;99.30;;;;;;5093448;28;20208;-62
2022/04/25 06:59:12;;;;;;;16.27;14.75;;;18.00;99.80;;;;;;5092869;28;20208;-62
2022/04/25 07:01:40;;;;;;;26.40;23.75;;;17.70;99.90;;;;;;5093468;28;20208;-58
2022/04/25 07:04:07;;;;;;;19.23;17.40;;;17.50;99.90;;;;;;5093218;28;20295;-57
2022/04/25 07:06:34;;;;;;;15.93;14.43;;;17.30;99.90;;;;;;5093045;28;20277;-58
2022/04/25 07:09:01;;;;;;;16.27;14.67;;;17.10;99.90;;;;;;5092851;28;20637;-58
2022/04/25 07:11:28;;;;;;;18.00;16.07;;;17.00;99.90;;;;;;5092439;28;20261;-61
2022/04/25 07:13:56;;;;;;;17.57;15.87;;;16.90;99.90;;;;;;5092785;28;20753;-56
2022/04/25 07:16:24;;;;;;;16.47;14.97;;;16.80;99.90;;;;;;5092773;28;20205;-56
2022/04/25 07:18:51;;;;;;;17.63;15.93;;;16.40;99.90;;;;;;5092539;28;20664;-57
2022/04/25 07:29:47;;;;;;;16.40;14.80;;;16.30;99.90;;;;;;5072026;28;20235;-56
2022/04/25 07:32:15;;;;;;;15.03;13.53;;;15.90;99.90;;;;;;5092613;28;20231;-56
2022/04/25 07:34:43;;;;;;;15.83;14.23;;;16.10;99.90;;;;;;5092361;28;20231;-56
2022/04/25 07:37:10;;;;;;;15.90;14.20;;;16.10;99.90;;;;;;5092718;28;20204;-56
2022/04/25 07:39:36;;;;;;;14.90;13.50;;;16.20;99.90;;;;;;5092122;28;20200;-56
2022/04/25 07:42:04;;;;;;;15.83;14.23;;;16.30;99.90;;;;;;5092012;28;20293;-57
2022/04/25 07:44:31;;;;;;;15.23;13.73;;;16.20;99.90;;;;;;5092674;28;20664;-55
2022/04/25 07:46:59;;;;;;;15.17;13.60;;;15.90;99.90;;;;;;5091864;28;20668;-56
2022/04/25 07:49:26;;;;;;;16.17;14.43;;;15.90;99.90;;;;;;5092132;28;20224;-56
2022/04/25 07:51:54;;;;;;;15.70;14.10;;;16.00;99.90;;;;;;5091771;28;20675;-56
2022/04/25 07:54:20;;;;;;;15.40;13.90;;;16.60;99.90;;;;;;5088783;22;20771;-59
2022/04/25 07:56:47;;;;;;;14.82;13.32;;;17.60;99.90;;;;;;5072120;28;20713;-59
2022/04/25 07:59:14;;;;;;;14.18;12.80;;;18.70;99.90;;;;;;5071776;28;20205;-59
2022/04/25 08:01:41;;;;;;;10.80;9.77;;;20.00;99.70;;;;;;5072682;28;20558;-59
2022/04/25 08:04:09;;;;;;;10.35;9.45;;;20.70;95.50;;;;;;5072539;28;20225;-59
2022/04/25 08:06:36;;;;;;;10.70;9.70;;;21.10;95.20;;;;;;5072375;28;20209;-59
2022/04/25 08:09:03;;;;;;;10.40;9.50;;;21.10;94.00;;;;;;5071658;28;20205;-59
2022/04/25 08:11:30;;;;;;;9.23;8.40;;;20.90;93.50;;;;;;5072092;28;20614;-59
2022/04/25 08:19:32;;;;;;;8.90;8.10;;;20.80;93.10;;;;;;5070645;28;20196;-61
2022/04/25 08:22:00;;;;;;;9.30;8.50;;;21.40;91.50;;;;;;5071804;28;20687;-61
2022/04/25 08:24:27;;;;;;;10.35;9.15;;;21.10;91.30;;;;;;5072150;28;20255;-58
2022/04/25 08:26:55;;;;;;;9.38;8.57;;;20.90;91.70;;;;;;5072168;28;20204;-57
2022/04/25 08:29:22;;;;;;;9.98;9.05;;;20.90;92.10;;;;;;5071695;28;20217;-57
2022/04/25 08:31:49;;;;;;;9.25;8.35;;;20.90;92.30;;;;;;5071958;28;20213;-58
2022/04/25 08:34:16;;;;;;;10.68;9.68;;;20.90;91.90;;;;;;5071609;28;20687;-56
2022/04/25 08:36:44;;;;;;;10.43;9.25;;;20.90;92.50;;;;;;5071898;28;20201;-58
2022/04/25 08:39:11;;;;;;;10.00;9.10;;;20.90;92.40;;;;;;5072840;28;20209;-58
2022/04/25 08:41:41;;;;;;;10.93;9.82;;;20.80;92.40;;;;;;5076023;28;20215;-57
2022/04/25 08:44:11;;;;;;;9.07;8.27;;;20.70;92.30;;;;;;5075684;28;20224;-57
2022/04/25 08:46:40;;;;;;;9.32;8.52;;;20.40;92.20;;;;;;5075525;28;20204;-57
2022/04/25 08:49:10;;;;;;;8.40;7.60;;;20.10;92.80;;;;;;5075608;28;20212;-58
2022/04/25 08:51:38;;;;;;;9.43;7.78;;;20.10;92.60;;;;;;5075464;28;20213;-56
2022/04/25 08:54:08;;;;;;;8.30;7.57;;;19.90;92.60;;;;;;5075316;28;20264;-57
2022/04/25 08:56:35;;;;;;;8.80;8.00;;;19.80;92.70;;;;;;5075790;28;20211;-57
2022/04/25 08:59:04;;;;;;;10.45;8.77;;;19.80;92.30;;;;;;5075196;28;20209;-57
2022/04/25 09:01:32;;;;;;;8.98;7.90;;;19.50;92.40;;;;;;5075461;28;20204;-56
2022/04/25 09:03:59;;;;;;;8.50;7.70;;;19.30;92.40;;;;;;5075432;28;20320;-57
2022/04/25 09:06:26;;;;;;;8.27;7.57;;;19.20;92.40;;;;;;5075370;28;20208;-57
2022/04/25 09:08:52;;;;;;;7.60;6.90;;;19.40;92.60;;;;;;5075143;28;20211;-57
2022/04/25 09:14:05;;;;;;;7.68;6.97;;;19.60;92.20;;;;;;5075354;28;20296;-57
2022/04/25 09:16:32;;;;;;;7.68;6.97;;;19.60;91.70;;;;;;5075432;28;20205;-58
2022/04/25 09:18:59;;;;;;;8.52;7.72;;;19.30;91.70;;;;;;5075010;28;20208;-57
2022/04/25 09:21:26;;;;;;;7.85;7.15;;;19.00;92.60;;;;;;5074991;28;20259;-58
2022/04/25 09:23:53;;;;;;;8.93;8.13;;;18.90;93.00;;;;;;5074919;28;20229;-58
2022/04/25 09:26:21;;;;;;;7.95;7.25;;;19.20;92.50;;;;;;5075063;28;20279;-56
2022/04/25 09:28:50;;;;;;;7.78;7.07;;;19.30;92.30;;;;;;5074855;28;20204;-58
2022/04/25 09:31:18;;;;;;;8.77;7.63;;;19.50;92.40;;;;;;5074637;28;20782;-57
2022/04/25 09:33:45;;;;;;;9.90;8.00;;;19.70;92.30;;;;;;5074731;28;20241;-58
2022/04/25 09:36:12;;;;;;;8.80;8.00;;;19.90;92.10;;;;;;5074560;28;20680;-57
2022/04/25 09:38:41;;;;;;;8.35;7.65;;;20.20;92.20;;;;;;5074202;28;20575;-58
2022/04/25 09:41:08;;;;;;;8.85;8.05;;;20.70;91.90;;;;;;5074828;28;20282;-58
2022/04/25 09:43:38;;;;;;;8.85;8.10;;;21.10;91.30;;;;;;5074722;28;20225;-57
2022/04/25 09:46:07;;;;;;;8.65;7.80;;;21.40;91.00;;;;;;5074488;28;20207;-58
2022/04/25 09:48:34;;;;;;;9.68;8.68;;;21.60;90.80;;;;;;5074468;28;20236;-57
2022/04/25 09:51:02;;;;;;;9.15;8.25;;;21.70;90.30;;;;;;5073772;28;20224;-56
2022/04/25 09:53:43;;;;;;;8.80;7.90;;;21.60;90.70;;;;;;5074277;28;20251;-57
2022/04/25 09:56:11;;;;;;;8.65;7.65;;;21.60;90.60;;;;;;5074416;28;20231;-57
2022/04/25 09:58:40;;;;;;;9.07;7.80;;;21.60;90.10;;;;;;5056453;28;20197;-56
2022/04/25 10:01:13;;;;;;;8.60;7.80;;;21.70;90.10;;;;;;5074137;28;20288;-57
2022/04/25 10:03:40;;;;;;;8.07;7.30;;;21.60;89.70;;;;;;5073904;28;20312;-57
2022/04/25 10:06:07;;;;;;;8.27;7.00;;;21.50;89.70;;;;;;5074434;28;20208;-58
2022/04/25 10:08:35;;;;;;;7.65;6.90;;;21.30;89.90;;;;;;5074253;28;20204;-57
2022/04/25 10:11:04;;;;;;;7.95;7.15;;;21.00;89.30;;;;;;5074315;28;20220;-56
2022/04/25 10:13:32;;;;;;;8.10;7.30;;;20.70;90.10;;;;;;5074024;28;20637;-58
2022/04/25 10:16:00;;;;;;;7.60;6.90;;;21.00;89.70;;;;;;5073774;28;20292;-56
2022/04/25 10:18:30;;;;;;;7.65;7.00;;;21.40;89.60;;;;;;5073726;28;20217;-56
2022/04/25 10:20:57;;;;;;;8.65;7.85;;;21.90;88.00;;;;;;5073685;28;20204;-56
2022/04/25 10:23:24;;;;;;;8.70;7.82;;;22.20;86.30;;;;;;5073623;28;20229;-57
2022/04/25 10:25:54;;;;;;;8.10;7.40;;;22.30;86.20;;;;;;5073663;28;20205;-56
2022/04/25 10:28:25;;;;;;;7.47;6.78;;;22.60;85.10;;;;;;5073289;28;20209;-57
2022/04/25 10:30:58;;;;;;;7.88;7.18;;;22.60;83.70;;;;;;5073216;28;20274;-57
2022/04/25 10:33:28;;;;;;;7.60;6.78;;;22.40;86.30;;;;;;5073753;28;20312;-57
2022/04/25 10:35:55;;;;;;;8.02;7.30;;;22.20;85.70;;;;;;5073357;28;20201;-56
2022/04/25 10:38:50;;;;;;;8.10;7.05;;;22.20;86.90;;;;;;5073232;28;20212;-56
2022/04/25 10:44:48;;;;;;;12.13;9.85;;;22.20;85.50;;;;;;5073518;28;20602;-57
2022/04/25 10:47:17;;;;;;;7.95;7.25;;;22.30;85.10;;;;;;5073598;28;20629;-57
2022/04/25 10:49:46;;;;;;;8.23;7.10;;;22.40;83.60;;;;;;5073606;28;20292;-57
2022/04/25 10:52:57;;;;;;;7.78;7.07;;;22.10;84.90;;;;;;5073560;28;20197;-57
2022/04/25 10:55:36;;;;;;;7.80;7.10;;;21.90;84.80;;;;;;5073198;28;20204;-57
2022/04/25 10:58:26;;;;;;;7.20;6.50;;;22.00;84.50;;;;;;5072989;28;20259;-56
2022/04/25 11:00:55;;;;;;;7.68;7.00;;;22.30;82.80;;;;;;5073273;28;20317;-57
2022/04/25 11:03:24;;;;;;;8.05;7.35;;;22.40;82.70;;;;;;5071723;28;20593;-57
2022/04/25 11:05:54;;;;;;;8.20;7.07;;;22.40;82.80;;;;;;5073041;28;20208;-58
2022/04/25 11:08:40;;;;;;;8.35;7.63;;;22.50;82.80;;;;;;5072854;28;20609;-57
2022/04/25 11:11:20;;;;;;;7.63;6.93;;;22.40;83.70;;;;;;5072810;28;20225;-57
2022/04/25 11:14:12;;;;;;;7.57;6.78;;;22.30;83.40;;;;;;5072696;28;20788;-58
2022/04/25 11:16:40;;;;;;;7.82;7.13;;;22.70;83.60;;;;;;5072493;28;20208;-58
2022/04/25 11:19:09;;;;;;;8.73;7.93;;;23.10;82.10;;;;;;5072550;28;20675;-57
2022/04/25 11:21:45;;;;;;;7.70;6.95;;;23.40;79.50;;;;;;5072526;28;20292;-56
2022/04/25 11:24:33;;;;;;;8.68;7.20;;;23.10;80.60;;;;;;5072493;28;20286;-57
2022/04/25 11:27:01;;;;;;;9.95;6.70;;;22.90;79.40;;;;;;5072461;28;20201;-56
2022/04/25 11:29:29;;;;;;;7.97;7.13;;;23.00;81.00;;;;;;5072160;28;20200;-56
2022/04/25 11:32:26;;;;;;;7.85;7.15;;;23.20;80.40;;;;;;5072561;28;20279;-56
2022/04/25 11:34:53;;;;;;;8.32;7.60;;;23.40;78.10;;;;;;5072350;28;20239;-58
2022/04/25 11:37:22;;;;;;;7.72;7.03;;;22.90;78.20;;;;;;5072426;28;20208;-57
2022/04/25 11:39:59;;;;;;;8.50;7.60;;;22.60;80.60;;;;;;5072107;28;20239;-58
2022/04/25 11:42:29;;;;;;;8.00;7.28;;;22.80;80.40;;;;;;5072590;28;20212;-57
2022/04/25 11:44:56;;;;;;;7.95;7.25;;;23.10;78.40;;;;;;5072354;28;20205;-57
2022/04/25 11:47:23;;;;;;;8.18;7.38;;;23.50;78.30;;;;;;5072103;28;20732;-58
2022/04/25 11:49:56;;;;;;;8.68;7.97;;;23.80;76.40;;;;;;5069191;28;20216;-59
2022/04/25 11:52:26;;;;;;;8.45;7.57;;;23.50;76.80;;;;;;5072166;28;20224;-58
2022/04/25 11:54:52;;;;;;;9.63;8.75;;;23.20;77.40;;;;;;5071956;28;20240;-58
2022/04/25 11:57:19;;;;;;;9.13;8.32;;;22.70;79.00;;;;;;5071869;28;20204;-60
2022/04/25 11:59:46;;;;;;;9.02;8.20;;;22.10;80.70;;;;;;5071399;28;20254;-60
2022/04/25 12:02:13;;;;;;;9.13;8.32;;;22.10;80.90;;;;;;5071496;28;20208;-59
2022/04/25 12:04:42;;;;;;;9.77;8.98;;;22.30;79.90;;;;;;5071865;28;20213;-60
2022/04/25 12:07:10;;;;;;;9.73;8.73;;;22.40;79.00;;;;;;5071770;28;20201;-59
2022/04/25 12:18:13;;;;;;;9.50;8.70;;;22.50;83.10;;;;;;5071754;28;20235;-60
2022/04/25 12:20:42;;;;;;;9.35;8.55;;;22.30;82.50;;;;;;5071362;28;20209;-60
2022/04/25 12:23:09;;;;;;;10.10;9.20;;;21.90;82.80;;;;;;5071287;28;20826;-57
2022/04/25 12:25:43;;;;;;;9.52;8.55;;;21.60;84.20;;;;;;5071601;28;20212;-57
2022/04/25 12:28:17;;;;;;;9.35;8.45;;;21.40;83.10;;;;;;5071422;28;20809;-56
2022/04/25 12:30:50;;;;;;;9.85;8.95;;;21.10;84.80;;;;;;5071437;28;20221;-57
2022/04/25 12:33:18;;;;;;;9.10;8.20;;;20.90;88.80;;;;;;5071538;28;20466;-58
2022/04/25 12:35:47;;;;;;;9.13;8.27;;;20.90;89.60;;;;;;5071445;28;20566;-58
2022/04/25 12:38:36;;;;;;;9.32;8.25;;;21.00;90.10;;;;;;5071560;28;20688;-58
2022/04/25 12:41:05;;;;;;;9.23;8.25;;;21.10;87.90;;;;;;5071703;28;20291;-58
2022/04/25 12:43:44;;;;;;;9.57;8.68;;;21.10;87.20;;;;;;5071500;28;20271;-57
2022/04/25 12:46:12;;;;;;;9.25;8.25;;;21.00;90.30;;;;;;5071473;28;20668;-58
2022/04/25 12:49:13;;;;;;;10.25;9.15;;;21.00;90.10;;;;;;5068619;28;20212;-59
2022/04/25 12:51:46;;;;;;;12.30;11.10;;;21.00;90.70;;;;;;5071223;28;20224;-58
2022/04/25 12:54:30;;;;;;;11.10;10.00;;;21.10;91.30;;;;;;5071342;28;20290;-58
2022/04/25 12:57:17;;;;;;;10.82;9.73;;;21.10;92.30;;;;;;5071755;28;20224;-59
2022/04/25 12:59:46;;;;;;;10.73;9.73;;;21.10;92.50;;;;;;5071187;28;20205;-58
2022/04/25 13:02:17;;;;;;;10.77;9.88;;;21.30;92.30;;;;;;5070823;28;20201;-57
2022/04/25 13:04:54;;;;;;;9.85;8.88;;;21.30;92.40;;;;;;5071265;28;20205;-59
2022/04/25 13:07:23;;;;;;;10.93;9.93;;;21.50;92.70;;;;;;5071447;28;20705;-58
2022/04/25 13:09:50;;;;;;;9.85;8.95;;;21.60;92.80;;;;;;5070922;28;20274;-59
2022/04/25 13:12:19;;;;;;;10.90;9.57;;;21.60;92.90;;;;;;5071089;28;20228;-58
2022/04/25 13:14:46;;;;;;;11.55;10.07;;;21.60;92.00;;;;;;5070656;28;20205;-58
2022/04/25 13:17:12;;;;;;;10.32;9.43;;;21.70;91.60;;;;;;5071090;28;20208;-58
2022/04/25 13:19:39;;;;;;;9.85;8.95;;;21.60;92.10;;;;;;5071247;28;20295;-58
2022/04/25 13:22:06;;;;;;;10.00;9.10;;;21.50;91.50;;;;;;5071345;28;20201;-58